Terminal Aerodrome Forecast
Issued by NWS

Home | Current Version | Previous Version | Text Only | Print | Product List | Glossary On
Versions: 1 2 3 4 5 6 7 8 9 10 11 12 13 14 15 16 17 18 19 20 21
000
FTUS46 KLOX 301305 AAA
TAFBUR
TAF AMD
KBUR 301305Z 3013/3112 VRB03KT 1SM BR OVC003
     FM301500 VRB03KT 2SM BR BKN003
     FM301600 VRB03KT 3SM BR BKN005
     FM301700 VRB03KT 5SM HZ SKC
     FM301900 17010KT P6SM SKC
     FM310500 VRB03KT P6SM SKC
     FM311100 VRB03KT 4SM BR BKN003=

USA.gov is the U.S. government's official web portal to all federal, state and local government web resources and services.